sensor_id;sensor_type;location;lat;lon;timestamp;pressure;altitude;pressure_sealevel;temperature
68127;BMP180;54931;52.098;21.006;2022-08-06T00:02:26;100081.20;;;21.70
68127;BMP180;54931;52.098;21.006;2022-08-06T00:04:54;100080.00;;;21.70
68127;BMP180;54931;52.098;21.006;2022-08-06T00:07:22;100077.40;;;21.70
68127;BMP180;54931;52.098;21.006;2022-08-06T00:09:49;100074.80;;;21.70
68127;BMP180;54931;52.098;21.006;2022-08-06T00:12:16;100068.20;;;21.60
68127;BMP180;54931;52.098;21.006;2022-08-06T00:14:44;100068.20;;;21.50
68127;BMP180;54931;52.098;21.006;2022-08-06T00:17:11;100069.80;;;21.40
68127;BMP180;54931;52.098;21.006;2022-08-06T00:19:38;100079.20;;;21.40
68127;BMP180;54931;52.098;21.006;2022-08-06T00:22:05;100079.20;;;21.40
68127;BMP180;54931;52.098;21.006;2022-08-06T00:24:33;100081.80;;;21.34
68127;BMP180;54931;52.098;21.006;2022-08-06T00:27:00;100083.20;;;21.30
68127;BMP180;54931;52.098;21.006;2022-08-06T00:29:27;100080.40;;;21.20
68127;BMP180;54931;52.098;21.006;2022-08-06T00:31:54;100081.20;;;21.10
68127;BMP180;54931;52.098;21.006;2022-08-06T00:34:21;100079.20;;;21.00
68127;BMP180;54931;52.098;21.006;2022-08-06T00:36:49;100077.20;;;21.00
68127;BMP180;54931;52.098;21.006;2022-08-06T00:39:16;100078.40;;;21.08
68127;BMP180;54931;52.098;21.006;2022-08-06T00:41:43;100078.80;;;21.10
68127;BMP180;54931;52.098;21.006;2022-08-06T00:44:11;100084.60;;;21.00
68127;BMP180;54931;52.098;21.006;2022-08-06T00:46:39;100085.40;;;20.90
68127;BMP180;54931;52.098;21.006;2022-08-06T00:49:07;100091.80;;;20.80
68127;BMP180;54931;52.098;21.006;2022-08-06T00:51:35;100109.80;;;20.60
68127;BMP180;54931;52.098;21.006;2022-08-06T00:54:02;100118.20;;;20.60
68127;BMP180;54931;52.098;21.006;2022-08-06T00:56:29;100120.40;;;20.50
68127;BMP180;54931;52.098;21.006;2022-08-06T00:58:57;100120.20;;;20.50
68127;BMP180;54931;52.098;21.006;2022-08-06T01:01:24;100095.60;;;20.46
68127;BMP180;54931;52.098;21.006;2022-08-06T01:03:51;100099.00;;;20.50
68127;BMP180;54931;52.098;21.006;2022-08-06T01:06:22;100120.00;;;20.40
68127;BMP180;54931;52.098;21.006;2022-08-06T01:08:49;100111.80;;;20.30
68127;BMP180;54931;52.098;21.006;2022-08-06T01:11:16;100097.40;;;20.30
68127;BMP180;54931;52.098;21.006;2022-08-06T01:13:43;100100.80;;;20.20
68127;BMP180;54931;52.098;21.006;2022-08-06T01:22:27;100095.60;;;20.10
68127;BMP180;54931;52.098;21.006;2022-08-06T01:28:53;100104.20;;;19.90
68127;BMP180;54931;52.098;21.006;2022-08-06T01:31:53;100096.80;;;19.80
68127;BMP180;54931;52.098;21.006;2022-08-06T01:34:39;100102.60;;;19.70
68127;BMP180;54931;52.098;21.006;2022-08-06T01:37:28;100100.80;;;19.70
68127;BMP180;54931;52.098;21.006;2022-08-06T01:40:03;100097.80;;;19.80
68127;BMP180;54931;52.098;21.006;2022-08-06T01:42:33;100106.20;;;19.80
68127;BMP180;54931;52.098;21.006;2022-08-06T01:45:03;100098.80;;;19.80
68127;BMP180;54931;52.098;21.006;2022-08-06T01:47:34;100094.40;;;19.80
68127;BMP180;54931;52.098;21.006;2022-08-06T01:50:05;100086.40;;;19.76
68127;BMP180;54931;52.098;21.006;2022-08-06T01:52:38;100097.60;;;19.70
68127;BMP180;54931;52.098;21.006;2022-08-06T01:55:18;100090.20;;;19.64
68127;BMP180;54931;52.098;21.006;2022-08-06T01:57:57;100083.60;;;19.70
68127;BMP180;54931;52.098;21.006;2022-08-06T02:00:27;100089.00;;;19.70
68127;BMP180;54931;52.098;21.006;2022-08-06T02:02:59;100085.40;;;19.70
68127;BMP180;54931;52.098;21.006;2022-08-06T02:05:29;100082.60;;;19.70
68127;BMP180;54931;52.098;21.006;2022-08-06T02:07:58;100082.20;;;19.80
68127;BMP180;54931;52.098;21.006;2022-08-06T02:10:30;100082.80;;;19.70
68127;BMP180;54931;52.098;21.006;2022-08-06T02:13:02;100079.60;;;19.70
68127;BMP180;54931;52.098;21.006;2022-08-06T02:15:34;100075.40;;;19.70
68127;BMP180;54931;52.098;21.006;2022-08-06T02:18:06;100077.00;;;19.70
68127;BMP180;54931;52.098;21.006;2022-08-06T02:20:42;100063.40;;;19.72
68127;BMP180;54931;52.098;21.006;2022-08-06T02:23:16;100067.00;;;19.74
68127;BMP180;54931;52.098;21.006;2022-08-06T02:25:47;100065.60;;;19.70
68127;BMP180;54931;52.098;21.006;2022-08-06T02:28:18;100067.40;;;19.70
68127;BMP180;54931;52.098;21.006;2022-08-06T02:30:49;100064.80;;;19.70
68127;BMP180;54931;52.098;21.006;2022-08-06T02:33:18;100071.00;;;19.70
68127;BMP180;54931;52.098;21.006;2022-08-06T02:38:33;100068.80;;;19.70
68127;BMP180;54931;52.098;21.006;2022-08-06T02:44:16;100068.00;;;19.70
68127;BMP180;54931;52.098;21.006;2022-08-06T02:46:51;100076.60;;;19.60
68127;BMP180;54931;52.098;21.006;2022-08-06T02:49:25;100087.00;;;19.58
68127;BMP180;54931;52.098;21.006;2022-08-06T02:52:35;100081.00;;;19.50
68127;BMP180;54931;52.098;21.006;2022-08-06T02:55:23;100076.20;;;19.50
68127;BMP180;54931;52.098;21.006;2022-08-06T02:58:08;100081.00;;;19.50
68127;BMP180;54931;52.098;21.006;2022-08-06T03:00:42;100079.40;;;19.50
68127;BMP180;54931;52.098;21.006;2022-08-06T03:03:13;100088.00;;;19.40
68127;BMP180;54931;52.098;21.006;2022-08-06T03:05:44;100090.60;;;19.50
68127;BMP180;54931;52.098;21.006;2022-08-06T03:08:18;100103.80;;;19.40
68127;BMP180;54931;52.098;21.006;2022-08-06T03:10:47;100105.40;;;19.40
68127;BMP180;54931;52.098;21.006;2022-08-06T03:13:17;100102.60;;;19.40
68127;BMP180;54931;52.098;21.006;2022-08-06T03:15:46;100107.80;;;19.34
68127;BMP180;54931;52.098;21.006;2022-08-06T03:18:17;100106.80;;;19.30
68127;BMP180;54931;52.098;21.006;2022-08-06T03:20:45;100101.80;;;19.38
68127;BMP180;54931;52.098;21.006;2022-08-06T03:23:14;100098.60;;;19.40
68127;BMP180;54931;52.098;21.006;2022-08-06T03:25:44;100105.60;;;19.34
68127;BMP180;54931;52.098;21.006;2022-08-06T03:28:14;100114.80;;;19.30
68127;BMP180;54931;52.098;21.006;2022-08-06T03:30:44;100111.20;;;19.30
68127;BMP180;54931;52.098;21.006;2022-08-06T03:33:15;100122.00;;;19.30
68127;BMP180;54931;52.098;21.006;2022-08-06T03:35:44;100114.80;;;19.30
68127;BMP180;54931;52.098;21.006;2022-08-06T03:38:14;100121.80;;;19.30
68127;BMP180;54931;52.098;21.006;2022-08-06T03:40:44;100120.60;;;19.30
68127;BMP180;54931;52.098;21.006;2022-08-06T03:43:13;100122.80;;;19.30
68127;BMP180;54931;52.098;21.006;2022-08-06T03:45:53;100132.20;;;19.30
68127;BMP180;54931;52.098;21.006;2022-08-06T03:48:28;100128.00;;;19.40
68127;BMP180;54931;52.098;21.006;2022-08-06T03:51:03;100126.00;;;19.46
68127;BMP180;54931;52.098;21.006;2022-08-06T03:53:33;100120.00;;;19.50
68127;BMP180;54931;52.098;21.006;2022-08-06T03:56:06;100121.20;;;19.54
68127;BMP180;54931;52.098;21.006;2022-08-06T03:58:38;100126.40;;;19.60
68127;BMP180;54931;52.098;21.006;2022-08-06T04:01:12;100131.40;;;19.70
68127;BMP180;54931;52.098;21.006;2022-08-06T04:03:44;100130.20;;;19.80
68127;BMP180;54931;52.098;21.006;2022-08-06T04:06:12;100134.00;;;19.80
68127;BMP180;54931;52.098;21.006;2022-08-06T04:08:41;100140.00;;;19.90
68127;BMP180;54931;52.098;21.006;2022-08-06T04:11:09;100137.20;;;20.00
68127;BMP180;54931;52.098;21.006;2022-08-06T04:13:39;100136.60;;;20.00
68127;BMP180;54931;52.098;21.006;2022-08-06T04:16:07;100139.80;;;20.10
68127;BMP180;54931;52.098;21.006;2022-08-06T04:18:38;100145.00;;;20.10
68127;BMP180;54931;52.098;21.006;2022-08-06T04:21:15;100148.80;;;20.20
68127;BMP180;54931;52.098;21.006;2022-08-06T04:23:43;100151.80;;;20.20
68127;BMP180;54931;52.098;21.006;2022-08-06T04:26:14;100167.20;;;20.22
68127;BMP180;54931;52.098;21.006;2022-08-06T04:28:50;100165.80;;;20.30
68127;BMP180;54931;52.098;21.006;2022-08-06T04:31:20;100170.00;;;20.40
68127;BMP180;54931;52.098;21.006;2022-08-06T04:33:51;100167.60;;;20.40
68127;BMP180;54931;52.098;21.006;2022-08-06T04:36:19;100168.20;;;20.40
68127;BMP180;54931;52.098;21.006;2022-08-06T04:38:48;100180.00;;;20.40
68127;BMP180;54931;52.098;21.006;2022-08-06T04:41:16;100187.80;;;20.40
68127;BMP180;54931;52.098;21.006;2022-08-06T04:43:45;100187.60;;;20.40
68127;BMP180;54931;52.098;21.006;2022-08-06T04:46:14;100200.80;;;20.50
68127;BMP180;54931;52.098;21.006;2022-08-06T04:48:41;100202.20;;;20.50
68127;BMP180;54931;52.098;21.006;2022-08-06T04:51:09;100205.20;;;20.56
68127;BMP180;54931;52.098;21.006;2022-08-06T04:53:41;100208.00;;;20.60
68127;BMP180;54931;52.098;21.006;2022-08-06T04:56:09;100203.60;;;20.70
68127;BMP180;54931;52.098;21.006;2022-08-06T04:58:38;100213.80;;;20.80
68127;BMP180;54931;52.098;21.006;2022-08-06T05:01:05;100214.00;;;20.90
68127;BMP180;54931;52.098;21.006;2022-08-06T05:03:33;100212.40;;;21.00
68127;BMP180;54931;52.098;21.006;2022-08-06T05:08:40;100216.80;;;21.30
68127;BMP180;54931;52.098;21.006;2022-08-06T05:11:50;100225.80;;;21.30
68127;BMP180;54931;52.098;21.006;2022-08-06T05:14:27;100225.60;;;21.30
68127;BMP180;54931;52.098;21.006;2022-08-06T05:16:56;100232.60;;;21.40
68127;BMP180;54931;52.098;21.006;2022-08-06T05:19:33;100228.40;;;21.40
68127;BMP180;54931;52.098;21.006;2022-08-06T05:22:02;100231.20;;;21.40
68127;BMP180;54931;52.098;21.006;2022-08-06T05:24:30;100234.00;;;21.50
68127;BMP180;54931;52.098;21.006;2022-08-06T05:26:59;100241.00;;;21.60
68127;BMP180;54931;52.098;21.006;2022-08-06T05:29:26;100244.20;;;21.70
68127;BMP180;54931;52.098;21.006;2022-08-06T05:31:59;100251.20;;;21.62
68127;BMP180;54931;52.098;21.006;2022-08-06T05:34:28;100265.20;;;21.70
68127;BMP180;54931;52.098;21.006;2022-08-06T05:36:55;100272.40;;;21.60
68127;BMP180;54931;52.098;21.006;2022-08-06T05:39:23;100286.40;;;21.66
68127;BMP180;54931;52.098;21.006;2022-08-06T05:41:51;100293.20;;;21.60
68127;BMP180;54931;52.098;21.006;2022-08-06T05:44:18;100300.00;;;21.60
68127;BMP180;54931;52.098;21.006;2022-08-06T05:47:04;100314.80;;;21.50
68127;BMP180;54931;52.098;21.006;2022-08-06T05:49:38;100329.20;;;21.50
68127;BMP180;54931;52.098;21.006;2022-08-06T05:52:19;100338.00;;;21.40
68127;BMP180;54931;52.098;21.006;2022-08-06T05:55:14;100340.40;;;21.40
68127;BMP180;54931;52.098;21.006;2022-08-06T05:57:59;100338.20;;;21.40
68127;BMP180;54931;52.098;21.006;2022-08-06T06:00:32;100345.40;;;21.40
68127;BMP180;54931;52.098;21.006;2022-08-06T06:03:04;100342.80;;;21.40
68127;BMP180;54931;52.098;21.006;2022-08-06T06:05:32;100352.00;;;21.40
68127;BMP180;54931;52.098;21.006;2022-08-06T06:08:00;100354.20;;;21.40
68127;BMP180;54931;52.098;21.006;2022-08-06T06:10:30;100353.40;;;21.40
68127;BMP180;54931;52.098;21.006;2022-08-06T06:13:03;100357.40;;;21.40
68127;BMP180;54931;52.098;21.006;2022-08-06T06:15:40;100361.60;;;21.40
68127;BMP180;54931;52.098;21.006;2022-08-06T06:18:31;100366.00;;;21.48
68127;BMP180;54931;52.098;21.006;2022-08-06T06:21:56;100368.40;;;21.50
68127;BMP180;54931;52.098;21.006;2022-08-06T06:24:35;100374.20;;;21.46
68127;BMP180;54931;52.098;21.006;2022-08-06T06:27:19;100375.40;;;21.48
68127;BMP180;54931;52.098;21.006;2022-08-06T06:30:16;100382.80;;;21.50
68127;BMP180;54931;52.098;21.006;2022-08-06T06:32:59;100395.80;;;21.60
68127;BMP180;54931;52.098;21.006;2022-08-06T06:38:58;100403.80;;;21.70
68127;BMP180;54931;52.098;21.006;2022-08-06T06:41:45;100407.40;;;21.64
68127;BMP180;54931;52.098;21.006;2022-08-06T06:44:24;100409.40;;;21.68
68127;BMP180;54931;52.098;21.006;2022-08-06T06:47:07;100411.00;;;21.70
68127;BMP180;54931;52.098;21.006;2022-08-06T06:49:43;100415.40;;;21.70
68127;BMP180;54931;52.098;21.006;2022-08-06T06:52:22;100420.80;;;21.78
68127;BMP180;54931;52.098;21.006;2022-08-06T06:54:59;100421.40;;;21.82
68127;BMP180;54931;52.098;21.006;2022-08-06T06:57:38;100421.00;;;21.90
68127;BMP180;54931;52.098;21.006;2022-08-06T07:00:08;100423.00;;;22.00
68127;BMP180;54931;52.098;21.006;2022-08-06T07:02:39;100420.40;;;22.00
68127;BMP180;54931;52.098;21.006;2022-08-06T07:05:10;100427.40;;;22.04
68127;BMP180;54931;52.098;21.006;2022-08-06T07:07:42;100427.80;;;22.08
68127;BMP180;54931;52.098;21.006;2022-08-06T07:10:13;100433.60;;;22.00
68127;BMP180;54931;52.098;21.006;2022-08-06T07:12:44;100437.40;;;22.00
68127;BMP180;54931;52.098;21.006;2022-08-06T07:15:14;100441.80;;;22.00
68127;BMP180;54931;52.098;21.006;2022-08-06T07:17:43;100433.60;;;22.00
68127;BMP180;54931;52.098;21.006;2022-08-06T07:20:14;100443.40;;;22.10
68127;BMP180;54931;52.098;21.006;2022-08-06T07:22:44;100449.60;;;22.18
68127;BMP180;54931;52.098;21.006;2022-08-06T07:25:14;100457.80;;;22.20
68127;BMP180;54931;52.098;21.006;2022-08-06T07:27:48;100456.00;;;22.10
68127;BMP180;54931;52.098;21.006;2022-08-06T07:30:18;100457.60;;;22.10
68127;BMP180;54931;52.098;21.006;2022-08-06T07:32:48;100456.00;;;22.12
68127;BMP180;54931;52.098;21.006;2022-08-06T07:35:20;100449.80;;;22.10
68127;BMP180;54931;52.098;21.006;2022-08-06T07:38:00;100452.80;;;22.00
68127;BMP180;54931;52.098;21.006;2022-08-06T07:40:50;100447.20;;;22.00
68127;BMP180;54931;52.098;21.006;2022-08-06T07:43:25;100452.00;;;21.90
68127;BMP180;54931;52.098;21.006;2022-08-06T07:45:56;100457.60;;;21.90
68127;BMP180;54931;52.098;21.006;2022-08-06T07:48:32;100457.80;;;21.80
68127;BMP180;54931;52.098;21.006;2022-08-06T07:51:02;100459.20;;;21.80
68127;BMP180;54931;52.098;21.006;2022-08-06T07:53:32;100471.00;;;21.80
68127;BMP180;54931;52.098;21.006;2022-08-06T07:56:06;100480.20;;;21.70
68127;BMP180;54931;52.098;21.006;2022-08-06T07:58:36;100484.40;;;21.70
68127;BMP180;54931;52.098;21.006;2022-08-06T08:01:06;100487.40;;;21.70
68127;BMP180;54931;52.098;21.006;2022-08-06T08:03:35;100491.60;;;21.70
68127;BMP180;54931;52.098;21.006;2022-08-06T08:06:22;100483.60;;;21.70
68127;BMP180;54931;52.098;21.006;2022-08-06T08:09:02;100490.00;;;21.70
68127;BMP180;54931;52.098;21.006;2022-08-06T08:11:31;100496.80;;;21.60
68127;BMP180;54931;52.098;21.006;2022-08-06T08:14:00;100505.20;;;21.56
68127;BMP180;54931;52.098;21.006;2022-08-06T08:16:31;100510.80;;;21.50
68127;BMP180;54931;52.098;21.006;2022-08-06T08:18:59;100514.40;;;21.46
68127;BMP180;54931;52.098;21.006;2022-08-06T08:21:29;100523.20;;;21.40
68127;BMP180;54931;52.098;21.006;2022-08-06T08:23:57;100531.00;;;21.32
68127;BMP180;54931;52.098;21.006;2022-08-06T08:26:24;100541.60;;;21.30
68127;BMP180;54931;52.098;21.006;2022-08-06T08:28:52;100543.00;;;21.16
68127;BMP180;54931;52.098;21.006;2022-08-06T08:31:19;100559.20;;;21.00
68127;BMP180;54931;52.098;21.006;2022-08-06T08:33:47;100576.60;;;20.90
68127;BMP180;54931;52.098;21.006;2022-08-06T08:36:15;100590.20;;;20.74
68127;BMP180;54931;52.098;21.006;2022-08-06T08:38:43;100598.80;;;20.60
68127;BMP180;54931;52.098;21.006;2022-08-06T08:41:20;100618.00;;;20.50
68127;BMP180;54931;52.098;21.006;2022-08-06T08:44:03;100631.00;;;20.40
68127;BMP180;54931;52.098;21.006;2022-08-06T08:46:39;100643.60;;;20.30
68127;BMP180;54931;52.098;21.006;2022-08-06T08:49:18;100652.20;;;20.20
68127;BMP180;54931;52.098;21.006;2022-08-06T08:51:48;100651.40;;;20.10
68127;BMP180;54931;52.098;21.006;2022-08-06T08:54:22;100652.80;;;20.00
68127;BMP180;54931;52.098;21.006;2022-08-06T08:56:50;100659.00;;;19.90
68127;BMP180;54931;52.098;21.006;2022-08-06T08:59:19;100657.60;;;19.82
68127;BMP180;54931;52.098;21.006;2022-08-06T09:01:48;100662.20;;;19.84
68127;BMP180;54931;52.098;21.006;2022-08-06T09:04:17;100681.20;;;19.80
68127;BMP180;54931;52.098;21.006;2022-08-06T09:06:46;100686.80;;;19.80
68127;BMP180;54931;52.098;21.006;2022-08-06T09:09:14;100685.40;;;19.70
68127;BMP180;54931;52.098;21.006;2022-08-06T09:11:43;100677.40;;;19.70
68127;BMP180;54931;52.098;21.006;2022-08-06T09:14:12;100675.60;;;19.60
68127;BMP180;54931;52.098;21.006;2022-08-06T09:16:40;100669.20;;;19.60
68127;BMP180;54931;52.098;21.006;2022-08-06T09:19:07;100660.60;;;19.60
68127;BMP180;54931;52.098;21.006;2022-08-06T09:21:36;100663.40;;;19.60
68127;BMP180;54931;52.098;21.006;2022-08-06T09:24:04;100674.00;;;19.60
68127;BMP180;54931;52.098;21.006;2022-08-06T09:26:32;100676.00;;;19.60
68127;BMP180;54931;52.098;21.006;2022-08-06T09:29:00;100684.40;;;19.60
68127;BMP180;54931;52.098;21.006;2022-08-06T09:31:28;100689.80;;;19.60
68127;BMP180;54931;52.098;21.006;2022-08-06T09:34:05;100703.00;;;19.58
68127;BMP180;54931;52.098;21.006;2022-08-06T09:36:44;100705.60;;;19.50
68127;BMP180;54931;52.098;21.006;2022-08-06T09:39:13;100709.40;;;19.50
68127;BMP180;54931;52.098;21.006;2022-08-06T09:41:49;100709.40;;;19.50
68127;BMP180;54931;52.098;21.006;2022-08-06T09:44:18;100708.20;;;19.50
68127;BMP180;54931;52.098;21.006;2022-08-06T09:46:48;100717.80;;;19.50
68127;BMP180;54931;52.098;21.006;2022-08-06T09:49:19;100730.20;;;19.56
68127;BMP180;54931;52.098;21.006;2022-08-06T09:51:46;100727.20;;;19.50
68127;BMP180;54931;52.098;21.006;2022-08-06T09:54:14;100723.60;;;19.30
68127;BMP180;54931;52.098;21.006;2022-08-06T09:56:56;100716.60;;;19.20
68127;BMP180;54931;52.098;21.006;2022-08-06T09:59:25;100722.80;;;19.18
68127;BMP180;54931;52.098;21.006;2022-08-06T10:01:53;100720.60;;;19.10
68127;BMP180;54931;52.098;21.006;2022-08-06T10:04:27;100722.40;;;19.04
68127;BMP180;54931;52.098;21.006;2022-08-06T10:07:01;100723.60;;;19.02
68127;BMP180;54931;52.098;21.006;2022-08-06T10:09:29;100726.20;;;19.04
68127;BMP180;54931;52.098;21.006;2022-08-06T10:11:57;100726.20;;;19.10
68127;BMP180;54931;52.098;21.006;2022-08-06T10:14:33;100735.80;;;19.10
68127;BMP180;54931;52.098;21.006;2022-08-06T10:19:43;100740.00;;;19.20
68127;BMP180;54931;52.098;21.006;2022-08-06T10:22:14;100741.80;;;19.20
68127;BMP180;54931;52.098;21.006;2022-08-06T10:24:54;100737.60;;;19.24
68127;BMP180;54931;52.098;21.006;2022-08-06T10:27:29;100742.00;;;19.20
68127;BMP180;54931;52.098;21.006;2022-08-06T10:30:05;100748.60;;;19.10
68127;BMP180;54931;52.098;21.006;2022-08-06T10:32:52;100766.00;;;19.10
68127;BMP180;54931;52.098;21.006;2022-08-06T10:35:23;100769.20;;;19.00
68127;BMP180;54931;52.098;21.006;2022-08-06T10:37:58;100772.80;;;18.90
68127;BMP180;54931;52.098;21.006;2022-08-06T10:40:27;100775.20;;;18.80
68127;BMP180;54931;52.098;21.006;2022-08-06T10:42:56;100781.40;;;18.70
68127;BMP180;54931;52.098;21.006;2022-08-06T10:45:24;100786.60;;;18.68
68127;BMP180;54931;52.098;21.006;2022-08-06T10:47:54;100785.80;;;18.60
68127;BMP180;54931;52.098;21.006;2022-08-06T10:50:23;100793.80;;;18.50
68127;BMP180;54931;52.098;21.006;2022-08-06T10:52:52;100794.80;;;18.50
68127;BMP180;54931;52.098;21.006;2022-08-06T10:55:20;100800.60;;;18.50
68127;BMP180;54931;52.098;21.006;2022-08-06T10:57:49;100798.80;;;18.50
68127;BMP180;54931;52.098;21.006;2022-08-06T11:00:16;100801.60;;;18.52
68127;BMP180;54931;52.098;21.006;2022-08-06T11:03:33;100801.80;;;18.60
68127;BMP180;54931;52.098;21.006;2022-08-06T11:15:00;100811.00;;;18.40
68127;BMP180;54931;52.098;21.006;2022-08-06T11:18:03;100807.00;;;18.40
68127;BMP180;54931;52.098;21.006;2022-08-06T11:20:34;100801.00;;;18.40
68127;BMP180;54931;52.098;21.006;2022-08-06T11:25:43;100796.80;;;18.50
68127;BMP180;54931;52.098;21.006;2022-08-06T11:28:14;100798.40;;;18.50
68127;BMP180;54931;52.098;21.006;2022-08-06T11:30:54;100798.20;;;18.50
68127;BMP180;54931;52.098;21.006;2022-08-06T11:36:10;100791.00;;;18.40
68127;BMP180;54931;52.098;21.006;2022-08-06T11:46:36;100805.20;;;18.30
68127;BMP180;54931;52.098;21.006;2022-08-06T11:51:57;100813.60;;;18.20
68127;BMP180;54931;52.098;21.006;2022-08-06T11:54:31;100822.60;;;18.20
68127;BMP180;54931;52.098;21.006;2022-08-06T12:02:15;100804.40;;;18.00
68127;BMP180;54931;52.098;21.006;2022-08-06T12:04:45;100807.20;;;18.00
68127;BMP180;54931;52.098;21.006;2022-08-06T12:07:24;100812.80;;;17.92
68127;BMP180;54931;52.098;21.006;2022-08-06T12:13:04;100818.40;;;17.90
68127;BMP180;54931;52.098;21.006;2022-08-06T12:15:51;100829.40;;;17.90
68127;BMP180;54931;52.098;21.006;2022-08-06T12:18:20;100833.00;;;17.86
68127;BMP180;54931;52.098;21.006;2022-08-06T12:20:48;100834.80;;;17.80
68127;BMP180;54931;52.098;21.006;2022-08-06T12:23:23;100840.60;;;17.80
68127;BMP180;54931;52.098;21.006;2022-08-06T12:25:54;100849.60;;;17.80
68127;BMP180;54931;52.098;21.006;2022-08-06T12:28:23;100857.60;;;17.80
68127;BMP180;54931;52.098;21.006;2022-08-06T12:30:53;100860.00;;;17.80
68127;BMP180;54931;52.098;21.006;2022-08-06T12:33:23;100860.00;;;17.80
68127;BMP180;54931;52.098;21.006;2022-08-06T12:36:01;100861.00;;;17.80
68127;BMP180;54931;52.098;21.006;2022-08-06T12:38:31;100865.60;;;17.80
68127;BMP180;54931;52.098;21.006;2022-08-06T12:41:05;100864.20;;;17.72
68127;BMP180;54931;52.098;21.006;2022-08-06T12:43:35;100863.60;;;17.70
68127;BMP180;54931;52.098;21.006;2022-08-06T12:46:05;100863.00;;;17.70
68127;BMP180;54931;52.098;21.006;2022-08-06T12:48:37;100856.80;;;17.70
68127;BMP180;54931;52.098;21.006;2022-08-06T12:51:13;100851.20;;;17.72
68127;BMP180;54931;52.098;21.006;2022-08-06T12:53:53;100857.00;;;17.80
68127;BMP180;54931;52.098;21.006;2022-08-06T12:56:23;100868.20;;;17.80
68127;BMP180;54931;52.098;21.006;2022-08-06T12:58:52;100871.80;;;17.80
68127;BMP180;54931;52.098;21.006;2022-08-06T13:01:24;100876.80;;;17.90
68127;BMP180;54931;52.098;21.006;2022-08-06T13:03:55;100877.60;;;18.00
68127;BMP180;54931;52.098;21.006;2022-08-06T13:06:27;100877.20;;;18.10
68127;BMP180;54931;52.098;21.006;2022-08-06T13:08:56;100875.00;;;18.20
68127;BMP180;54931;52.098;21.006;2022-08-06T13:11:31;100880.40;;;18.20
68127;BMP180;54931;52.098;21.006;2022-08-06T13:14:07;100880.60;;;18.20
68127;BMP180;54931;52.098;21.006;2022-08-06T13:16:40;100881.60;;;18.20
68127;BMP180;54931;52.098;21.006;2022-08-06T13:19:17;100879.00;;;18.34
68127;BMP180;54931;52.098;21.006;2022-08-06T13:21:57;100878.60;;;18.50
68127;BMP180;54931;52.098;21.006;2022-08-06T13:24:26;100872.80;;;18.72
68127;BMP180;54931;52.098;21.006;2022-08-06T13:26:55;100871.40;;;18.92
68127;BMP180;54931;52.098;21.006;2022-08-06T13:29:25;100867.20;;;19.18
68127;BMP180;54931;52.098;21.006;2022-08-06T13:32:10;100867.20;;;19.40
68127;BMP180;54931;52.098;21.006;2022-08-06T13:34:57;100878.40;;;19.80
68127;BMP180;54931;52.098;21.006;2022-08-06T13:37:49;100879.40;;;20.02
68127;BMP180;54931;52.098;21.006;2022-08-06T13:40:19;100874.20;;;20.30
68127;BMP180;54931;52.098;21.006;2022-08-06T13:43:01;100871.60;;;20.50
68127;BMP180;54931;52.098;21.006;2022-08-06T13:45:29;100873.20;;;20.64
68127;BMP180;54931;52.098;21.006;2022-08-06T13:48:10;100871.80;;;20.86
68127;BMP180;54931;52.098;21.006;2022-08-06T13:50:42;100876.20;;;21.00
68127;BMP180;54931;52.098;21.006;2022-08-06T13:53:12;100876.60;;;21.00
68127;BMP180;54931;52.098;21.006;2022-08-06T13:55:43;100883.00;;;21.00
68127;BMP180;54931;52.098;21.006;2022-08-06T13:58:11;100884.40;;;20.80
68127;BMP180;54931;52.098;21.006;2022-08-06T14:00:39;100880.60;;;20.72
68127;BMP180;54931;52.098;21.006;2022-08-06T14:03:08;100886.00;;;20.74
68127;BMP180;54931;52.098;21.006;2022-08-06T14:05:35;100890.60;;;20.84
68127;BMP180;54931;52.098;21.006;2022-08-06T14:08:03;100888.20;;;20.94
68127;BMP180;54931;52.098;21.006;2022-08-06T14:10:30;100891.60;;;20.80
68127;BMP180;54931;52.098;21.006;2022-08-06T14:12:58;100886.60;;;20.70
68127;BMP180;54931;52.098;21.006;2022-08-06T14:15:49;100883.80;;;20.60
68127;BMP180;54931;52.098;21.006;2022-08-06T14:18:19;100883.60;;;20.50
68127;BMP180;54931;52.098;21.006;2022-08-06T14:20:47;100886.60;;;20.40
68127;BMP180;54931;52.098;21.006;2022-08-06T14:23:15;100894.00;;;20.32
68127;BMP180;54931;52.098;21.006;2022-08-06T14:25:42;100898.60;;;20.30
68127;BMP180;54931;52.098;21.006;2022-08-06T14:28:09;100899.80;;;20.38
68127;BMP180;54931;52.098;21.006;2022-08-06T14:30:38;100904.60;;;20.40
68127;BMP180;54931;52.098;21.006;2022-08-06T14:33:06;100899.20;;;20.48
68127;BMP180;54931;52.098;21.006;2022-08-06T14:35:37;100898.80;;;20.50
68127;BMP180;54931;52.098;21.006;2022-08-06T14:38:06;100900.40;;;20.60
68127;BMP180;54931;52.098;21.006;2022-08-06T14:40:34;100897.40;;;20.76
68127;BMP180;54931;52.098;21.006;2022-08-06T14:43:20;100903.40;;;21.00
68127;BMP180;54931;52.098;21.006;2022-08-06T14:46:06;100901.00;;;21.16
68127;BMP180;54931;52.098;21.006;2022-08-06T14:48:34;100899.80;;;21.20
68127;BMP180;54931;52.098;21.006;2022-08-06T14:51:01;100896.60;;;21.34
68127;BMP180;54931;52.098;21.006;2022-08-06T14:53:28;100895.60;;;21.56
68127;BMP180;54931;52.098;21.006;2022-08-06T14:55:56;100899.00;;;21.88
68127;BMP180;54931;52.098;21.006;2022-08-06T14:58:23;100900.60;;;22.16
68127;BMP180;54931;52.098;21.006;2022-08-06T15:00:50;100896.40;;;22.30
68127;BMP180;54931;52.098;21.006;2022-08-06T15:03:18;100895.80;;;22.40
68127;BMP180;54931;52.098;21.006;2022-08-06T15:05:46;100902.20;;;22.40
68127;BMP180;54931;52.098;21.006;2022-08-06T15:08:13;100902.00;;;22.48
68127;BMP180;54931;52.098;21.006;2022-08-06T15:10:41;100904.80;;;22.46
68127;BMP180;54931;52.098;21.006;2022-08-06T15:13:08;100910.00;;;22.30